sensor_id;sensor_type;location;lat;lon;timestamp;P1;durP1;ratioP1;P2;durP2;ratioP2
12124;SDS011;6126;57.908;16.490;2022-08-19T00:01:47;9.75;;;8.77;;
12124;SDS011;6126;57.908;16.490;2022-08-19T00:04:17;8.65;;;6.82;;
12124;SDS011;6126;57.908;16.490;2022-08-19T00:06:50;6.00;;;5.50;;
12124;SDS011;6126;57.908;16.490;2022-08-19T00:09:17;7.05;;;6.43;;
12124;SDS011;6126;57.908;16.490;2022-08-19T00:11:46;9.68;;;6.47;;
12124;SDS011;6126;57.908;16.490;2022-08-19T00:14:13;6.43;;;5.82;;
12124;SDS011;6126;57.908;16.490;2022-08-19T00:16:42;10.70;;;9.00;;
12124;SDS011;6126;57.908;16.490;2022-08-19T00:19:10;8.43;;;7.63;;
12124;SDS011;6126;57.908;16.490;2022-08-19T00:21:37;6.00;;;5.50;;
12124;SDS011;6126;57.908;16.490;2022-08-19T00:24:04;7.18;;;6.35;;
12124;SDS011;6126;57.908;16.490;2022-08-19T00:26:36;7.88;;;7.13;;
12124;SDS011;6126;57.908;16.490;2022-08-19T00:29:05;8.70;;;7.40;;
12124;SDS011;6126;57.908;16.490;2022-08-19T00:31:34;10.93;;;9.02;;
12124;SDS011;6126;57.908;16.490;2022-08-19T00:34:01;9.05;;;7.70;;
12124;SDS011;6126;57.908;16.490;2022-08-19T00:36:28;8.55;;;7.68;;
12124;SDS011;6126;57.908;16.490;2022-08-19T00:38:54;8.23;;;7.50;;
12124;SDS011;6126;57.908;16.490;2022-08-19T00:41:21;8.65;;;6.82;;
12124;SDS011;6126;57.908;16.490;2022-08-19T00:46:40;8.45;;;7.57;;
12124;SDS011;6126;57.908;16.490;2022-08-19T00:52:06;9.70;;;7.50;;
12124;SDS011;6126;57.908;16.490;2022-08-19T00:54:37;9.15;;;8.10;;
12124;SDS011;6126;57.908;16.490;2022-08-19T00:57:06;9.02;;;7.70;;
12124;SDS011;6126;57.908;16.490;2022-08-19T00:59:40;8.52;;;7.25;;
12124;SDS011;6126;57.908;16.490;2022-08-19T01:02:10;9.73;;;6.32;;
12124;SDS011;6126;57.908;16.490;2022-08-19T01:04:37;16.70;;;7.05;;
12124;SDS011;6126;57.908;16.490;2022-08-19T01:07:04;10.43;;;6.25;;
12124;SDS011;6126;57.908;16.490;2022-08-19T01:09:31;8.65;;;7.80;;
12124;SDS011;6126;57.908;16.490;2022-08-19T01:11:57;7.30;;;6.60;;
12124;SDS011;6126;57.908;16.490;2022-08-19T01:14:23;8.02;;;6.97;;
12124;SDS011;6126;57.908;16.490;2022-08-19T01:16:50;6.75;;;6.15;;
12124;SDS011;6126;57.908;16.490;2022-08-19T01:22:06;6.53;;;5.93;;
12124;SDS011;6126;57.908;16.490;2022-08-19T01:24:38;5.95;;;5.45;;
12124;SDS011;6126;57.908;16.490;2022-08-19T01:27:05;6.30;;;5.70;;
12124;SDS011;6126;57.908;16.490;2022-08-19T01:29:32;6.07;;;5.47;;
12124;SDS011;6126;57.908;16.490;2022-08-19T01:32:01;6.45;;;5.90;;
12124;SDS011;6126;57.908;16.490;2022-08-19T01:34:28;7.65;;;6.80;;
12124;SDS011;6126;57.908;16.490;2022-08-19T01:36:54;8.40;;;7.60;;
12124;SDS011;6126;57.908;16.490;2022-08-19T01:39:24;9.73;;;6.45;;
12124;SDS011;6126;57.908;16.490;2022-08-19T01:41:51;6.57;;;6.07;;
12124;SDS011;6126;57.908;16.490;2022-08-19T01:44:19;6.60;;;6.00;;
12124;SDS011;6126;57.908;16.490;2022-08-19T01:46:48;7.00;;;6.32;;
12124;SDS011;6126;57.908;16.490;2022-08-19T01:49:19;7.63;;;6.93;;
12124;SDS011;6126;57.908;16.490;2022-08-19T01:51:48;9.38;;;6.20;;
12124;SDS011;6126;57.908;16.490;2022-08-19T01:54:15;8.43;;;6.68;;
12124;SDS011;6126;57.908;16.490;2022-08-19T01:56:43;8.35;;;6.68;;
12124;SDS011;6126;57.908;16.490;2022-08-19T01:59:10;7.90;;;7.10;;
12124;SDS011;6126;57.908;16.490;2022-08-19T02:01:41;7.82;;;6.72;;
12124;SDS011;6126;57.908;16.490;2022-08-19T02:04:07;8.55;;;7.75;;
12124;SDS011;6126;57.908;16.490;2022-08-19T02:06:34;9.15;;;8.25;;
12124;SDS011;6126;57.908;16.490;2022-08-19T02:09:02;8.63;;;7.75;;
12124;SDS011;6126;57.908;16.490;2022-08-19T02:11:31;9.20;;;8.32;;
12124;SDS011;6126;57.908;16.490;2022-08-19T02:14:02;6.47;;;5.95;;
12124;SDS011;6126;57.908;16.490;2022-08-19T02:16:31;7.38;;;6.78;;
12124;SDS011;6126;57.908;16.490;2022-08-19T02:18:57;7.05;;;6.43;;
12124;SDS011;6126;57.908;16.490;2022-08-19T02:21:26;6.45;;;5.90;;
12124;SDS011;6126;57.908;16.490;2022-08-19T02:23:54;6.97;;;6.28;;
12124;SDS011;6126;57.908;16.490;2022-08-19T02:26:21;6.40;;;5.90;;
12124;SDS011;6126;57.908;16.490;2022-08-19T02:28:48;6.15;;;5.65;;
12124;SDS011;6126;57.908;16.490;2022-08-19T02:31:18;5.60;;;5.20;;
12124;SDS011;6126;57.908;16.490;2022-08-19T02:33:47;7.38;;;5.05;;
12124;SDS011;6126;57.908;16.490;2022-08-19T02:36:14;5.95;;;5.45;;
12124;SDS011;6126;57.908;16.490;2022-08-19T02:38:42;10.13;;;5.45;;
12124;SDS011;6126;57.908;16.490;2022-08-19T02:41:14;5.70;;;5.28;;
12124;SDS011;6126;57.908;16.490;2022-08-19T02:43:47;5.35;;;4.95;;
12124;SDS011;6126;57.908;16.490;2022-08-19T02:46:18;5.18;;;4.78;;
12124;SDS011;6126;57.908;16.490;2022-08-19T02:48:52;6.25;;;5.75;;
12124;SDS011;6126;57.908;16.490;2022-08-19T02:51:23;6.00;;;5.50;;
12124;SDS011;6126;57.908;16.490;2022-08-19T02:53:56;6.65;;;6.05;;
12124;SDS011;6126;57.908;16.490;2022-08-19T02:56:23;6.60;;;5.95;;
12124;SDS011;6126;57.908;16.490;2022-08-19T02:58:51;7.97;;;6.97;;
12124;SDS011;6126;57.908;16.490;2022-08-19T03:01:26;10.73;;;6.82;;
12124;SDS011;6126;57.908;16.490;2022-08-19T03:03:57;5.60;;;5.20;;
12124;SDS011;6126;57.908;16.490;2022-08-19T03:06:25;6.18;;;5.68;;
12124;SDS011;6126;57.908;16.490;2022-08-19T03:08:52;7.03;;;6.43;;
12124;SDS011;6126;57.908;16.490;2022-08-19T03:11:21;8.18;;;6.43;;
12124;SDS011;6126;57.908;16.490;2022-08-19T03:13:50;11.05;;;6.20;;
12124;SDS011;6126;57.908;16.490;2022-08-19T03:16:18;6.80;;;6.20;;
12124;SDS011;6126;57.908;16.490;2022-08-19T03:18:50;8.52;;;6.32;;
12124;SDS011;6126;57.908;16.490;2022-08-19T03:21:19;6.15;;;5.65;;
12124;SDS011;6126;57.908;16.490;2022-08-19T03:23:49;9.77;;;6.82;;
12124;SDS011;6126;57.908;16.490;2022-08-19T03:26:18;12.68;;;7.63;;
12124;SDS011;6126;57.908;16.490;2022-08-19T03:28:45;9.38;;;7.00;;
12124;SDS011;6126;57.908;16.490;2022-08-19T03:31:15;7.57;;;6.47;;
12124;SDS011;6126;57.908;16.490;2022-08-19T03:33:44;7.25;;;6.57;;
12124;SDS011;6126;57.908;16.490;2022-08-19T03:36:17;8.23;;;7.35;;
12124;SDS011;6126;57.908;16.490;2022-08-19T03:38:51;10.57;;;6.95;;
12124;SDS011;6126;57.908;16.490;2022-08-19T03:41:22;9.85;;;6.88;;
12124;SDS011;6126;57.908;16.490;2022-08-19T03:44:04;9.15;;;7.35;;
12124;SDS011;6126;57.908;16.490;2022-08-19T03:46:31;7.45;;;6.75;;
12124;SDS011;6126;57.908;16.490;2022-08-19T03:48:59;7.57;;;6.45;;
12124;SDS011;6126;57.908;16.490;2022-08-19T03:51:34;7.93;;;7.22;;
12124;SDS011;6126;57.908;16.490;2022-08-19T03:54:04;9.00;;;6.47;;
12124;SDS011;6126;57.908;16.490;2022-08-19T03:56:34;7.80;;;6.50;;
12124;SDS011;6126;57.908;16.490;2022-08-19T03:59:04;7.20;;;6.57;;
12124;SDS011;6126;57.908;16.490;2022-08-19T04:01:34;6.80;;;6.20;;
12124;SDS011;6126;57.908;16.490;2022-08-19T04:04:00;7.70;;;6.30;;
12124;SDS011;6126;57.908;16.490;2022-08-19T04:06:29;6.70;;;6.10;;
12124;SDS011;6126;57.908;16.490;2022-08-19T04:08:59;7.20;;;6.55;;
12124;SDS011;6126;57.908;16.490;2022-08-19T04:11:30;6.78;;;6.18;;
12124;SDS011;6126;57.908;16.490;2022-08-19T04:14:07;6.63;;;6.03;;
12124;SDS011;6126;57.908;16.490;2022-08-19T04:16:34;6.15;;;5.70;;
12124;SDS011;6126;57.908;16.490;2022-08-19T04:19:01;5.85;;;5.38;;
12124;SDS011;6126;57.908;16.490;2022-08-19T04:21:29;5.25;;;4.85;;
12124;SDS011;6126;57.908;16.490;2022-08-19T04:23:56;5.38;;;4.95;;
12124;SDS011;6126;57.908;16.490;2022-08-19T04:26:24;4.90;;;4.50;;
12124;SDS011;6126;57.908;16.490;2022-08-19T04:28:57;6.00;;;5.50;;
12124;SDS011;6126;57.908;16.490;2022-08-19T04:31:25;6.07;;;5.57;;
12124;SDS011;6126;57.908;16.490;2022-08-19T04:33:58;5.82;;;5.32;;
12124;SDS011;6126;57.908;16.490;2022-08-19T04:36:28;5.55;;;5.15;;
12124;SDS011;6126;57.908;16.490;2022-08-19T04:38:58;6.60;;;6.00;;
12124;SDS011;6126;57.908;16.490;2022-08-19T04:41:30;7.60;;;6.05;;
12124;SDS011;6126;57.908;16.490;2022-08-19T04:44:15;6.13;;;5.63;;
12124;SDS011;6126;57.908;16.490;2022-08-19T04:46:45;6.07;;;5.57;;
12124;SDS011;6126;57.908;16.490;2022-08-19T04:49:13;6.40;;;5.80;;
12124;SDS011;6126;57.908;16.490;2022-08-19T04:51:40;9.07;;;6.50;;
12124;SDS011;6126;57.908;16.490;2022-08-19T04:54:09;6.55;;;6.00;;
12124;SDS011;6126;57.908;16.490;2022-08-19T04:56:35;6.75;;;6.15;;
12124;SDS011;6126;57.908;16.490;2022-08-19T04:59:02;7.68;;;7.00;;
12124;SDS011;6126;57.908;16.490;2022-08-19T05:01:30;8.80;;;6.75;;
12124;SDS011;6126;57.908;16.490;2022-08-19T05:04:02;7.22;;;6.63;;
12124;SDS011;6126;57.908;16.490;2022-08-19T05:06:32;7.38;;;6.53;;
12124;SDS011;6126;57.908;16.490;2022-08-19T05:09:00;9.27;;;6.90;;
12124;SDS011;6126;57.908;16.490;2022-08-19T05:11:31;7.95;;;7.25;;
12124;SDS011;6126;57.908;16.490;2022-08-19T05:14:04;8.00;;;7.30;;
12124;SDS011;6126;57.908;16.490;2022-08-19T05:16:32;7.95;;;7.15;;
12124;SDS011;6126;57.908;16.490;2022-08-19T05:18:58;7.97;;;7.18;;
12124;SDS011;6126;57.908;16.490;2022-08-19T05:21:42;8.27;;;7.10;;
12124;SDS011;6126;57.908;16.490;2022-08-19T05:24:28;12.98;;;7.43;;
12124;SDS011;6126;57.908;16.490;2022-08-19T05:26:59;8.80;;;6.95;;
12124;SDS011;6126;57.908;16.490;2022-08-19T05:29:28;8.85;;;7.40;;
12124;SDS011;6126;57.908;16.490;2022-08-19T05:31:56;9.88;;;7.63;;
12124;SDS011;6126;57.908;16.490;2022-08-19T05:34:24;9.02;;;6.93;;
12124;SDS011;6126;57.908;16.490;2022-08-19T05:36:58;7.82;;;7.03;;
12124;SDS011;6126;57.908;16.490;2022-08-19T05:39:26;11.65;;;7.30;;
12124;SDS011;6126;57.908;16.490;2022-08-19T05:41:56;7.40;;;6.70;;
12124;SDS011;6126;57.908;16.490;2022-08-19T05:44:28;11.32;;;6.93;;
12124;SDS011;6126;57.908;16.490;2022-08-19T05:47:01;8.23;;;6.90;;
12124;SDS011;6126;57.908;16.490;2022-08-19T05:49:29;8.07;;;7.28;;
12124;SDS011;6126;57.908;16.490;2022-08-19T05:51:58;10.00;;;8.25;;
12124;SDS011;6126;57.908;16.490;2022-08-19T05:54:29;14.02;;;7.72;;
12124;SDS011;6126;57.908;16.490;2022-08-19T05:56:55;8.75;;;7.85;;
12124;SDS011;6126;57.908;16.490;2022-08-19T05:59:22;7.45;;;6.68;;
12124;SDS011;6126;57.908;16.490;2022-08-19T06:01:49;9.50;;;7.40;;
12124;SDS011;6126;57.908;16.490;2022-08-19T06:04:17;8.50;;;7.47;;
12124;SDS011;6126;57.908;16.490;2022-08-19T06:06:46;9.38;;;7.90;;
12124;SDS011;6126;57.908;16.490;2022-08-19T06:09:17;8.27;;;7.00;;
12124;SDS011;6126;57.908;16.490;2022-08-19T06:11:54;9.13;;;8.02;;
12124;SDS011;6126;57.908;16.490;2022-08-19T06:14:25;10.02;;;7.90;;
12124;SDS011;6126;57.908;16.490;2022-08-19T06:16:59;12.00;;;8.18;;
12124;SDS011;6126;57.908;16.490;2022-08-19T06:19:27;7.68;;;6.85;;
12124;SDS011;6126;57.908;16.490;2022-08-19T06:21:56;10.40;;;8.20;;
12124;SDS011;6126;57.908;16.490;2022-08-19T06:24:25;9.20;;;7.47;;
12124;SDS011;6126;57.908;16.490;2022-08-19T06:26:53;11.15;;;8.50;;
12124;SDS011;6126;57.908;16.490;2022-08-19T06:29:23;10.63;;;7.57;;
12124;SDS011;6126;57.908;16.490;2022-08-19T06:31:53;10.20;;;8.45;;
12124;SDS011;6126;57.908;16.490;2022-08-19T06:34:22;10.65;;;8.80;;
12124;SDS011;6126;57.908;16.490;2022-08-19T06:36:49;10.05;;;8.68;;
12124;SDS011;6126;57.908;16.490;2022-08-19T06:39:19;11.50;;;8.50;;
12124;SDS011;6126;57.908;16.490;2022-08-19T06:41:53;12.45;;;9.02;;
12124;SDS011;6126;57.908;16.490;2022-08-19T06:44:22;11.35;;;8.32;;
12124;SDS011;6126;57.908;16.490;2022-08-19T06:46:52;11.65;;;8.52;;
12124;SDS011;6126;57.908;16.490;2022-08-19T06:49:20;10.20;;;7.90;;
12124;SDS011;6126;57.908;16.490;2022-08-19T06:51:48;10.77;;;8.50;;
12124;SDS011;6126;57.908;16.490;2022-08-19T06:54:16;10.55;;;9.20;;
12124;SDS011;6126;57.908;16.490;2022-08-19T06:56:43;10.65;;;8.45;;
12124;SDS011;6126;57.908;16.490;2022-08-19T06:59:11;9.13;;;8.00;;
12124;SDS011;6126;57.908;16.490;2022-08-19T07:01:43;10.85;;;8.50;;
12124;SDS011;6126;57.908;16.490;2022-08-19T07:04:12;9.88;;;8.75;;
12124;SDS011;6126;57.908;16.490;2022-08-19T07:06:41;10.50;;;9.40;;
12124;SDS011;6126;57.908;16.490;2022-08-19T07:09:10;10.43;;;9.25;;
12124;SDS011;6126;57.908;16.490;2022-08-19T07:11:46;12.68;;;9.35;;
12124;SDS011;6126;57.908;16.490;2022-08-19T07:14:16;11.98;;;9.35;;
12124;SDS011;6126;57.908;16.490;2022-08-19T07:16:45;12.52;;;10.85;;
12124;SDS011;6126;57.908;16.490;2022-08-19T07:19:14;11.52;;;10.18;;
12124;SDS011;6126;57.908;16.490;2022-08-19T07:21:41;12.27;;;10.90;;
12124;SDS011;6126;57.908;16.490;2022-08-19T07:24:08;14.23;;;11.25;;
12124;SDS011;6126;57.908;16.490;2022-08-19T07:26:37;11.98;;;10.63;;
12124;SDS011;6126;57.908;16.490;2022-08-19T07:29:06;12.13;;;10.90;;
12124;SDS011;6126;57.908;16.490;2022-08-19T07:31:33;12.07;;;10.90;;
12124;SDS011;6126;57.908;16.490;2022-08-19T07:34:02;12.25;;;11.13;;
12124;SDS011;6126;57.908;16.490;2022-08-19T07:36:32;13.82;;;10.98;;
12124;SDS011;6126;57.908;16.490;2022-08-19T07:39:04;12.38;;;11.13;;
12124;SDS011;6126;57.908;16.490;2022-08-19T07:41:44;12.25;;;11.05;;
12124;SDS011;6126;57.908;16.490;2022-08-19T07:44:12;11.88;;;10.73;;
12124;SDS011;6126;57.908;16.490;2022-08-19T07:46:42;11.32;;;10.30;;
12124;SDS011;6126;57.908;16.490;2022-08-19T07:49:13;11.30;;;10.10;;
12124;SDS011;6126;57.908;16.490;2022-08-19T07:51:44;12.43;;;10.40;;
12124;SDS011;6126;57.908;16.490;2022-08-19T07:54:33;11.40;;;10.30;;
12124;SDS011;6126;57.908;16.490;2022-08-19T07:57:02;12.63;;;10.80;;
12124;SDS011;6126;57.908;16.490;2022-08-19T07:59:29;11.43;;;10.30;;
12124;SDS011;6126;57.908;16.490;2022-08-19T08:01:55;11.65;;;10.45;;
12124;SDS011;6126;57.908;16.490;2022-08-19T08:04:24;12.07;;;10.48;;
12124;SDS011;6126;57.908;16.490;2022-08-19T08:07:09;11.18;;;10.07;;
12124;SDS011;6126;57.908;16.490;2022-08-19T08:09:53;12.30;;;10.30;;
12124;SDS011;6126;57.908;16.490;2022-08-19T08:12:23;11.30;;;10.13;;
12124;SDS011;6126;57.908;16.490;2022-08-19T08:15:01;10.98;;;9.88;;
12124;SDS011;6126;57.908;16.490;2022-08-19T08:17:35;11.45;;;10.00;;
12124;SDS011;6126;57.908;16.490;2022-08-19T08:20:05;11.68;;;9.25;;
12124;SDS011;6126;57.908;16.490;2022-08-19T08:22:32;12.00;;;8.70;;
12124;SDS011;6126;57.908;16.490;2022-08-19T08:25:18;9.90;;;8.90;;
12124;SDS011;6126;57.908;16.490;2022-08-19T08:27:48;8.90;;;7.95;;
12124;SDS011;6126;57.908;16.490;2022-08-19T08:30:17;9.77;;;8.77;;
12124;SDS011;6126;57.908;16.490;2022-08-19T08:32:47;10.13;;;8.38;;
12124;SDS011;6126;57.908;16.490;2022-08-19T08:35:15;9.63;;;8.60;;
12124;SDS011;6126;57.908;16.490;2022-08-19T08:37:46;11.82;;;8.82;;
12124;SDS011;6126;57.908;16.490;2022-08-19T08:42:47;12.88;;;8.57;;
12124;SDS011;6126;57.908;16.490;2022-08-19T08:45:52;11.35;;;7.78;;
12124;SDS011;6126;57.908;16.490;2022-08-19T08:51:24;12.88;;;7.80;;
12124;SDS011;6126;57.908;16.490;2022-08-19T08:54:00;9.10;;;8.30;;
12124;SDS011;6126;57.908;16.490;2022-08-19T08:56:31;8.70;;;7.32;;
12124;SDS011;6126;57.908;16.490;2022-08-19T08:58:59;10.10;;;7.97;;
12124;SDS011;6126;57.908;16.490;2022-08-19T09:01:45;15.48;;;7.75;;
12124;SDS011;6126;57.908;16.490;2022-08-19T09:04:11;9.95;;;7.55;;
12124;SDS011;6126;57.908;16.490;2022-08-19T09:06:40;10.77;;;7.20;;
12124;SDS011;6126;57.908;16.490;2022-08-19T09:09:18;8.00;;;7.20;;
12124;SDS011;6126;57.908;16.490;2022-08-19T09:15:00;12.63;;;7.93;;
12124;SDS011;6126;57.908;16.490;2022-08-19T09:17:31;10.25;;;7.15;;
12124;SDS011;6126;57.908;16.490;2022-08-19T09:22:41;9.93;;;7.35;;
12124;SDS011;6126;57.908;16.490;2022-08-19T09:25:13;8.02;;;6.93;;
12124;SDS011;6126;57.908;16.490;2022-08-19T09:27:42;9.38;;;6.68;;
12124;SDS011;6126;57.908;16.490;2022-08-19T09:30:11;7.45;;;5.82;;
12124;SDS011;6126;57.908;16.490;2022-08-19T09:32:46;8.85;;;5.85;;
12124;SDS011;6126;57.908;16.490;2022-08-19T09:35:12;8.43;;;6.15;;
12124;SDS011;6126;57.908;16.490;2022-08-19T09:37:40;7.68;;;5.78;;
12124;SDS011;6126;57.908;16.490;2022-08-19T09:40:08;10.23;;;5.53;;
12124;SDS011;6126;57.908;16.490;2022-08-19T09:42:35;5.97;;;5.47;;
12124;SDS011;6126;57.908;16.490;2022-08-19T09:45:01;6.57;;;5.78;;
12124;SDS011;6126;57.908;16.490;2022-08-19T09:47:28;5.90;;;5.30;;
12124;SDS011;6126;57.908;16.490;2022-08-19T09:49:54;7.13;;;5.07;;
12124;SDS011;6126;57.908;16.490;2022-08-19T09:52:20;7.80;;;5.10;;
12124;SDS011;6126;57.908;16.490;2022-08-19T09:54:46;6.90;;;5.20;;
12124;SDS011;6126;57.908;16.490;2022-08-19T09:57:12;7.95;;;5.15;;
12124;SDS011;6126;57.908;16.490;2022-08-19T09:59:38;6.47;;;5.45;;
12124;SDS011;6126;57.908;16.490;2022-08-19T10:02:05;7.07;;;5.25;;
12124;SDS011;6126;57.908;16.490;2022-08-19T10:04:31;5.68;;;4.95;;
12124;SDS011;6126;57.908;16.490;2022-08-19T10:07:17;5.88;;;5.32;;
12124;SDS011;6126;57.908;16.490;2022-08-19T10:09:43;6.93;;;5.30;;
12124;SDS011;6126;57.908;16.490;2022-08-19T10:12:09;7.35;;;5.55;;
12124;SDS011;6126;57.908;16.490;2022-08-19T10:14:35;8.20;;;5.32;;
12124;SDS011;6126;57.908;16.490;2022-08-19T10:17:02;9.13;;;6.10;;
12124;SDS011;6126;57.908;16.490;2022-08-19T10:19:28;8.50;;;5.80;;
12124;SDS011;6126;57.908;16.490;2022-08-19T10:22:02;6.38;;;5.78;;
12124;SDS011;6126;57.908;16.490;2022-08-19T10:24:30;7.43;;;5.28;;
12124;SDS011;6126;57.908;16.490;2022-08-19T10:26:56;6.55;;;4.95;;
12124;SDS011;6126;57.908;16.490;2022-08-19T10:29:24;5.70;;;5.10;;
12124;SDS011;6126;57.908;16.490;2022-08-19T10:31:52;9.68;;;5.50;;
12124;SDS011;6126;57.908;16.490;2022-08-19T10:34:19;5.43;;;4.95;;
12124;SDS011;6126;57.908;16.490;2022-08-19T10:36:45;6.65;;;5.32;;
12124;SDS011;6126;57.908;16.490;2022-08-19T10:39:11;6.63;;;5.60;;
12124;SDS011;6126;57.908;16.490;2022-08-19T10:41:38;6.07;;;5.43;;
12124;SDS011;6126;57.908;16.490;2022-08-19T10:44:06;9.93;;;5.32;;
12124;SDS011;6126;57.908;16.490;2022-08-19T10:46:41;11.07;;;5.13;;
12124;SDS011;6126;57.908;16.490;2022-08-19T10:49:10;7.05;;;5.55;;
12124;SDS011;6126;57.908;16.490;2022-08-19T10:51:37;8.38;;;5.55;;
12124;SDS011;6126;57.908;16.490;2022-08-19T10:54:23;8.13;;;5.50;;
12124;SDS011;6126;57.908;16.490;2022-08-19T10:57:10;6.07;;;5.10;;
12124;SDS011;6126;57.908;16.490;2022-08-19T10:59:36;6.00;;;5.40;;
12124;SDS011;6126;57.908;16.490;2022-08-19T11:02:04;7.28;;;5.15;;
12124;SDS011;6126;57.908;16.490;2022-08-19T11:04:35;5.75;;;5.00;;
12124;SDS011;6126;57.908;16.490;2022-08-19T11:07:03;10.10;;;5.40;;
12124;SDS011;6126;57.908;16.490;2022-08-19T11:09:31;10.35;;;5.43;;
12124;SDS011;6126;57.908;16.490;2022-08-19T11:12:05;9.02;;;5.78;;
12124;SDS011;6126;57.908;16.490;2022-08-19T11:14:33;8.50;;;6.22;;
12124;SDS011;6126;57.908;16.490;2022-08-19T11:16:59;6.35;;;5.55;;
12124;SDS011;6126;57.908;16.490;2022-08-19T11:19:26;6.40;;;5.00;;
12124;SDS011;6126;57.908;16.490;2022-08-19T11:21:52;9.10;;;5.13;;
12124;SDS011;6126;57.908;16.490;2022-08-19T11:24:20;6.22;;;5.40;;
12124;SDS011;6126;57.908;16.490;2022-08-19T11:26:49;5.88;;;4.82;;
12124;SDS011;6126;57.908;16.490;2022-08-19T11:29:21;9.50;;;5.60;;
12124;SDS011;6126;57.908;16.490;2022-08-19T11:31:50;8.43;;;5.30;;
12124;SDS011;6126;57.908;16.490;2022-08-19T11:34:19;8.18;;;4.90;;
12124;SDS011;6126;57.908;16.490;2022-08-19T11:36:49;9.52;;;4.80;;
12124;SDS011;6126;57.908;16.490;2022-08-19T11:39:18;5.07;;;4.57;;
12124;SDS011;6126;57.908;16.490;2022-08-19T11:41:47;7.10;;;4.78;;
12124;SDS011;6126;57.908;16.490;2022-08-19T11:44:13;5.85;;;4.45;;
12124;SDS011;6126;57.908;16.490;2022-08-19T11:46:40;8.38;;;4.93;;
12124;SDS011;6126;57.908;16.490;2022-08-19T11:49:12;6.45;;;4.70;;
12124;SDS011;6126;57.908;16.490;2022-08-19T11:51:40;8.88;;;5.25;;
12124;SDS011;6126;57.908;16.490;2022-08-19T11:54:08;5.13;;;4.53;;
12124;SDS011;6126;57.908;16.490;2022-08-19T11:56:37;6.82;;;4.60;;
12124;SDS011;6126;57.908;16.490;2022-08-19T11:59:04;5.55;;;4.97;;
12124;SDS011;6126;57.908;16.490;2022-08-19T12:01:30;6.13;;;5.03;;
12124;SDS011;6126;57.908;16.490;2022-08-19T12:03:56;7.22;;;5.70;;
12124;SDS011;6126;57.908;16.490;2022-08-19T12:06:25;7.00;;;5.30;;
12124;SDS011;6126;57.908;16.490;2022-08-19T12:08:57;6.82;;;4.82;;
12124;SDS011;6126;57.908;16.490;2022-08-19T12:11:30;6.53;;;5.10;;
12124;SDS011;6126;57.908;16.490;2022-08-19T12:13:57;8.90;;;5.15;;
12124;SDS011;6126;57.908;16.490;2022-08-19T12:16:25;8.18;;;4.55;;
12124;SDS011;6126;57.908;16.490;2022-08-19T12:18:54;7.88;;;5.32;;
12124;SDS011;6126;57.908;16.490;2022-08-19T12:21:23;8.18;;;4.70;;
12124;SDS011;6126;57.908;16.490;2022-08-19T12:23:54;9.15;;;4.70;;
12124;SDS011;6126;57.908;16.490;2022-08-19T12:26:23;5.00;;;4.53;;
12124;SDS011;6126;57.908;16.490;2022-08-19T12:28:52;9.48;;;4.88;;
12124;SDS011;6126;57.908;16.490;2022-08-19T12:31:18;6.03;;;4.75;;
12124;SDS011;6126;57.908;16.490;2022-08-19T12:33:44;6.30;;;5.00;;
12124;SDS011;6126;57.908;16.490;2022-08-19T12:36:12;5.15;;;4.60;;
12124;SDS011;6126;57.908;16.490;2022-08-19T12:38:40;6.43;;;4.40;;
12124;SDS011;6126;57.908;16.490;2022-08-19T12:41:09;5.20;;;4.13;;
12124;SDS011;6126;57.908;16.490;2022-08-19T12:43:38;5.53;;;4.50;;
12124;SDS011;6126;57.908;16.490;2022-08-19T12:46:04;4.72;;;4.22;;
12124;SDS011;6126;57.908;16.490;2022-08-19T12:48:31;17.40;;;5.10;;
12124;SDS011;6126;57.908;16.490;2022-08-19T12:50:59;5.25;;;4.68;;
12124;SDS011;6126;57.908;16.490;2022-08-19T12:53:30;5.93;;;4.40;;
12124;SDS011;6126;57.908;16.490;2022-08-19T12:55:56;8.95;;;4.35;;
12124;SDS011;6126;57.908;16.490;2022-08-19T12:58:25;5.47;;;4.22;;
12124;SDS011;6126;57.908;16.490;2022-08-19T13:00:51;4.55;;;3.78;;
12124;SDS011;6126;57.908;16.490;2022-08-19T13:03:18;7.18;;;4.43;;
12124;SDS011;6126;57.908;16.490;2022-08-19T13:05:44;7.90;;;4.20;;
12124;SDS011;6126;57.908;16.490;2022-08-19T13:08:09;5.30;;;4.65;;
12124;SDS011;6126;57.908;16.490;2022-08-19T13:10:36;5.47;;;4.07;;
12124;SDS011;6126;57.908;16.490;2022-08-19T13:13:06;5.55;;;4.78;;
12124;SDS011;6126;57.908;16.490;2022-08-19T13:15:36;5.20;;;4.70;;
12124;SDS011;6126;57.908;16.490;2022-08-19T13:18:08;5.15;;;4.60;;
12124;SDS011;6126;57.908;16.490;2022-08-19T13:20:36;8.25;;;4.50;;
12124;SDS011;6126;57.908;16.490;2022-08-19T13:23:03;11.23;;;4.82;;
12124;SDS011;6126;57.908;16.490;2022-08-19T13:25:29;5.07;;;4.50;;
12124;SDS011;6126;57.908;16.490;2022-08-19T13:27:56;6.45;;;4.65;;
12124;SDS011;6126;57.908;16.490;2022-08-19T13:30:22;5.22;;;4.22;;
12124;SDS011;6126;57.908;16.490;2022-08-19T13:33:07;6.35;;;4.18;;
12124;SDS011;6126;57.908;16.490;2022-08-19T13:35:40;4.80;;;4.28;;
12124;SDS011;6126;57.908;16.490;2022-08-19T13:38:22;8.25;;;4.90;;
12124;SDS011;6126;57.908;16.490;2022-08-19T13:40:49;5.93;;;4.20;;
12124;SDS011;6126;57.908;16.490;2022-08-19T13:43:19;5.05;;;4.35;;
12124;SDS011;6126;57.908;16.490;2022-08-19T13:45:47;4.90;;;4.40;;
12124;SDS011;6126;57.908;16.490;2022-08-19T13:48:16;5.55;;;4.40;;
12124;SDS011;6126;57.908;16.490;2022-08-19T13:50:44;5.10;;;4.45;;
12124;SDS011;6126;57.908;16.490;2022-08-19T13:53:12;7.90;;;4.75;;
12124;SDS011;6126;57.908;16.490;2022-08-19T13:55:42;6.30;;;4.65;;
12124;SDS011;6126;57.908;16.490;2022-08-19T13:58:09;5.32;;;4.70;;
12124;SDS011;6126;57.908;16.490;2022-08-19T14:00:39;6.78;;;4.57;;
12124;SDS011;6126;57.908;16.490;2022-08-19T14:03:08;6.32;;;5.00;;
12124;SDS011;6126;57.908;16.490;2022-08-19T14:05:34;5.25;;;4.72;;
12124;SDS011;6126;57.908;16.490;2022-08-19T14:08:01;9.70;;;4.72;;
12124;SDS011;6126;57.908;16.490;2022-08-19T14:10:27;5.20;;;4.70;;
12124;SDS011;6126;57.908;16.490;2022-08-19T14:12:55;5.85;;;4.32;;
12124;SDS011;6126;57.908;16.490;2022-08-19T14:15:25;7.70;;;5.00;;
12124;SDS011;6126;57.908;16.490;2022-08-19T14:17:52;6.00;;;4.70;;
12124;SDS011;6126;57.908;16.490;2022-08-19T14:20:19;6.63;;;4.70;;
12124;SDS011;6126;57.908;16.490;2022-08-19T14:22:46;5.00;;;4.35;;
12124;SDS011;6126;57.908;16.490;2022-08-19T14:25:14;6.43;;;4.43;;
12124;SDS011;6126;57.908;16.490;2022-08-19T14:27:54;8.57;;;5.03;;
12124;SDS011;6126;57.908;16.490;2022-08-19T14:30:23;4.93;;;4.32;;
12124;SDS011;6126;57.908;16.490;2022-08-19T14:32:53;12.00;;;5.10;;
12124;SDS011;6126;57.908;16.490;2022-08-19T14:35:21;6.15;;;4.50;;
12124;SDS011;6126;57.908;16.490;2022-08-19T14:37:48;5.40;;;4.65;;
12124;SDS011;6126;57.908;16.490;2022-08-19T14:40:17;5.93;;;5.20;;
12124;SDS011;6126;57.908;16.490;2022-08-19T14:42:46;5.38;;;4.88;;
12124;SDS011;6126;57.908;16.490;2022-08-19T14:45:13;6.32;;;5.63;;
12124;SDS011;6126;57.908;16.490;2022-08-19T14:47:39;11.63;;;5.60;;
12124;SDS011;6126;57.908;16.490;2022-08-19T14:50:06;8.00;;;5.60;;
12124;SDS011;6126;57.908;16.490;2022-08-19T14:52:35;5.68;;;5.07;;
12124;SDS011;6126;57.908;16.490;2022-08-19T14:55:01;6.00;;;4.95;;
12124;SDS011;6126;57.908;16.490;2022-08-19T14:57:28;9.75;;;5.00;;
12124;SDS011;6126;57.908;16.490;2022-08-19T14:59:54;8.40;;;4.85;;
12124;SDS011;6126;57.908;16.490;2022-08-19T15:02:22;5.75;;;5.25;;
12124;SDS011;6126;57.908;16.490;2022-08-19T15:04:48;6.05;;;5.38;;
12124;SDS011;6126;57.908;16.490;2022-08-19T15:07:15;8.27;;;5.90;;
12124;SDS011;6126;57.908;16.490;2022-08-19T15:09:41;6.30;;;5.68;;
12124;SDS011;6126;57.908;16.490;2022-08-19T15:12:07;6.63;;;5.60;;
12124;SDS011;6126;57.908;16.490;2022-08-19T15:14:35;5.85;;;5.00;;
12124;SDS011;6126;57.908;16.490;2022-08-19T15:17:03;6.18;;;5.57;;